Time;durP1;ratioP1;P1;durP2;ratioP2;P2;SDS_P1;SDS_P2;PMS_P1;PMS_P2;Temp;Humidity;BMP_temperature;BMP_pressure;BME280_temperature;BME280_humidity;BME280_pressure;Samples;Min_cycle;Max_cycle;Signal;HPM_P1;HPM_P2
2023/05/09 00:01:05;;;;;;;;;;;17.00;99.90;;;;;;5090662;28;19935;-73
2023/05/09 00:03:32;;;;;;;;;;;16.90;99.90;;;;;;5101890;28;20015;-73
2023/05/09 00:05:57;;;;;;;;;;;16.90;99.90;;;;;;5087950;28;19932;-73
2023/05/09 00:08:23;;;;;;;;;;;16.80;99.90;;;;;;5090719;28;19920;-73
2023/05/09 00:10:48;;;;;;;;;;;16.70;99.90;;;;;;5092121;28;19936;-73
2023/05/09 00:13:14;;;;;;;;;;;16.60;99.90;;;;;;5091754;28;19923;-73
2023/05/09 00:15:39;;;;;;;;;;;16.60;99.90;;;;;;5103736;28;20735;-73
2023/05/09 00:18:05;;;;;;;;;;;16.50;99.90;;;;;;5098914;28;19919;-73
2023/05/09 00:20:32;;;;;;;;;;;16.50;99.90;;;;;;5102934;28;19987;-73
2023/05/09 00:22:58;;;;;;;;;;;16.50;99.90;;;;;;5107344;28;19919;-73
2023/05/09 00:25:24;;;;;;;;;;;16.40;99.90;;;;;;5093917;28;19927;-73
2023/05/09 00:27:49;;;;;;;;;;;16.40;99.90;;;;;;5092786;28;20271;-73
2023/05/09 00:30:15;;;;;;;;;;;16.30;99.90;;;;;;5075152;28;19935;-73
2023/05/09 00:32:40;;;;;;;;;;;16.30;99.90;;;;;;5091680;28;19946;-73
2023/05/09 00:35:06;;;;;;;;;;;16.30;99.90;;;;;;5092697;28;19929;-73
2023/05/09 00:37:32;;;;;;;;;;;16.30;99.90;;;;;;5093590;28;19928;-73
2023/05/09 00:39:57;;;;;;;;;;;16.20;99.90;;;;;;5093530;28;19926;-73
2023/05/09 00:42:23;;;;;;;;;;;16.20;99.90;;;;;;5092462;28;20293;-73
2023/05/09 00:44:49;;;;;;;;;;;16.20;99.90;;;;;;5091214;28;19924;-73
2023/05/09 00:47:14;;;;;;;;;;;16.10;99.90;;;;;;5093131;28;19924;-73
2023/05/09 00:49:40;;;;;;;;;;;16.10;99.90;;;;;;5088223;28;20007;-73
2023/05/09 00:52:05;;;;;;;;;;;16.00;99.90;;;;;;5100336;28;19926;-73
2023/05/09 00:54:31;;;;;;;;;;;16.00;99.90;;;;;;5099216;28;19927;-73
2023/05/09 00:56:57;;;;;;;;;;;15.90;99.90;;;;;;5099200;28;19979;-73
2023/05/09 00:59:22;;;;;;;;;;;15.90;99.90;;;;;;5098889;28;19924;-73
2023/05/09 01:01:48;;;;;;;;;;;15.80;99.90;;;;;;5082303;28;20049;-73
2023/05/09 01:04:14;;;;;;;;;;;15.80;99.90;;;;;;5099518;28;19958;-73
2023/05/09 01:06:58;;;;;;;;;;;15.80;99.90;;;;;;5100725;28;19920;-73
2023/05/09 01:09:35;;;;;;;;;;;15.80;99.90;;;;;;5097874;28;19920;-73
2023/05/09 01:12:04;;;;;;;;;;;15.80;99.90;;;;;;5091176;28;20002;-73
2023/05/09 01:14:38;;;;;;;;;;;15.80;99.90;;;;;;5090470;28;19920;-73
2023/05/09 01:17:07;;;;;;;;;;;15.80;99.90;;;;;;5091190;28;19924;-73
2023/05/09 01:19:52;;;;;;;;;;;15.80;99.90;;;;;;5079074;28;19920;-73
2023/05/09 01:22:18;;;;;;;;;;;15.80;99.90;;;;;;5101184;28;19920;-73
2023/05/09 01:25:04;;;;;;;;;;;15.80;99.90;;;;;;5099053;28;19920;-73
2023/05/09 01:27:43;;;;;;;;;;;15.80;99.90;;;;;;5097724;28;19919;-73
2023/05/09 01:30:10;;;;;;;;;;;15.80;99.90;;;;;;5098361;28;19973;-73
2023/05/09 01:32:37;;;;;;;;;;;15.80;99.90;;;;;;5101730;28;19926;-73
2023/05/09 01:35:04;;;;;;;;;;;15.80;99.90;;;;;;5100557;28;19966;-73
2023/05/09 01:37:32;;;;;;;;;;;15.80;99.90;;;;;;5100547;28;20294;-73
2023/05/09 01:40:00;;;;;;;;;;;15.80;99.90;;;;;;5100325;28;19920;-73
2023/05/09 01:42:27;;;;;;;;;;;15.90;99.90;;;;;;5100579;28;19920;-73
2023/05/09 01:44:53;;;;;;;;;;;15.90;99.90;;;;;;5098984;28;20014;-73
2023/05/09 01:47:19;;;;;;;;;;;15.90;99.90;;;;;;5094809;28;20012;-73
2023/05/09 01:49:46;;;;;;;;;;;15.90;99.90;;;;;;5090788;28;20316;-73
2023/05/09 01:52:13;;;;;;;;;;;16.00;99.90;;;;;;5091370;28;19923;-73
2023/05/09 01:54:39;;;;;;;;;;;16.00;99.90;;;;;;5090504;28;19928;-73
2023/05/09 01:57:06;;;;;;;;;;;16.00;99.90;;;;;;5090234;28;19935;-73
2023/05/09 01:59:33;;;;;;;;;;;16.00;99.90;;;;;;5101667;28;20680;-73
2023/05/09 02:01:58;;;;;;;;;;;16.00;99.90;;;;;;5100951;28;19920;-73
2023/05/09 02:04:24;;;;;;;;;;;16.00;99.90;;;;;;5092699;28;19976;-73
2023/05/09 02:06:50;;;;;;;;;;;16.00;99.90;;;;;;5083130;28;20374;-73
2023/05/09 02:09:19;;;;;;;;;;;16.00;99.90;;;;;;5070059;28;19946;-73
2023/05/09 02:11:45;;;;;;;;;;;15.90;99.90;;;;;;5091968;28;20722;-73
2023/05/09 02:14:11;;;;;;;;;;;15.90;99.90;;;;;;5090427;28;19924;-73
2023/05/09 02:16:38;;;;;;;;;;;15.90;99.90;;;;;;5089571;28;20630;-73
2023/05/09 02:19:04;;;;;;;;;;;16.00;99.90;;;;;;5092012;28;19919;-73
2023/05/09 02:21:29;;;;;;;;;;;15.90;99.90;;;;;;5089996;28;20396;-73
2023/05/09 02:23:55;;;;;;;;;;;15.90;99.90;;;;;;5089589;28;19927;-73
2023/05/09 02:26:21;;;;;;;;;;;15.90;99.90;;;;;;5089870;28;20012;-73
2023/05/09 02:28:47;;;;;;;;;;;15.90;99.90;;;;;;5089511;28;19931;-73
2023/05/09 02:31:13;;;;;;;;;;;15.80;99.90;;;;;;5071872;28;19924;-73
2023/05/09 02:33:40;;;;;;;;;;;15.90;99.90;;;;;;5091416;28;19931;-73
2023/05/09 02:36:07;;;;;;;;;;;15.80;99.90;;;;;;5090439;28;19920;-73
2023/05/09 02:38:33;;;;;;;;;;;15.80;99.90;;;;;;5090521;28;19920;-73
2023/05/09 02:40:59;;;;;;;;;;;15.70;99.90;;;;;;5090900;28;19920;-73
2023/05/09 02:43:24;;;;;;;;;;;15.70;99.90;;;;;;5092142;28;20047;-73
2023/05/09 02:45:50;;;;;;;;;;;15.60;99.90;;;;;;5072530;28;19927;-73
2023/05/09 02:48:16;;;;;;;;;;;15.60;99.90;;;;;;5090255;28;19920;-73
2023/05/09 02:50:44;;;;;;;;;;;15.60;99.90;;;;;;5089628;28;19920;-73
2023/05/09 02:53:10;;;;;;;;;;;15.60;99.90;;;;;;5090231;28;19920;-74
2023/05/09 02:55:36;;;;;;;;;;;15.60;99.90;;;;;;5090389;28;20279;-74
2023/05/09 02:58:01;;;;;;;;;;;15.50;99.90;;;;;;5089322;28;20366;-74
2023/05/09 03:00:27;;;;;;;;;;;15.50;99.90;;;;;;5090972;28;20454;-74
2023/05/09 03:02:53;;;;;;;;;;;15.50;99.90;;;;;;5091392;28;19920;-74
2023/05/09 03:05:19;;;;;;;;;;;15.50;99.90;;;;;;5090005;28;20056;-74
2023/05/09 03:07:44;;;;;;;;;;;15.50;99.90;;;;;;5091288;28;19938;-74
2023/05/09 03:10:11;;;;;;;;;;;15.50;99.90;;;;;;5089061;28;19920;-74
2023/05/09 03:12:37;;;;;;;;;;;15.50;99.90;;;;;;5073043;28;19927;-74
2023/05/09 03:15:04;;;;;;;;;;;15.40;99.90;;;;;;5089161;28;19981;-74
2023/05/09 03:17:30;;;;;;;;;;;15.40;99.90;;;;;;5089205;28;20073;-74
2023/05/09 03:19:55;;;;;;;;;;;15.30;99.90;;;;;;5088950;28;20571;-74
2023/05/09 03:22:21;;;;;;;;;;;15.30;99.90;;;;;;5088820;28;20042;-74
2023/05/09 03:24:47;;;;;;;;;;;15.30;99.90;;;;;;5098786;28;20285;-73
2023/05/09 03:27:13;;;;;;;;;;;15.30;99.90;;;;;;5105041;28;20328;-74
2023/05/09 03:29:39;;;;;;;;;;;15.30;99.90;;;;;;5088129;28;19927;-74
2023/05/09 03:32:04;;;;;;;;;;;15.30;99.90;;;;;;5088377;28;19924;-74
2023/05/09 03:34:30;;;;;;;;;;;15.30;99.90;;;;;;5090430;28;19920;-74
2023/05/09 03:36:55;;;;;;;;;;;15.40;99.90;;;;;;5089001;28;19920;-74
2023/05/09 03:39:21;;;;;;;;;;;15.30;99.90;;;;;;5089516;28;19924;-74
2023/05/09 03:41:47;;;;;;;;;;;15.40;99.90;;;;;;5088625;28;19920;-74
2023/05/09 03:44:13;;;;;;;;;;;15.40;99.90;;;;;;5096639;28;19931;-74
2023/05/09 03:46:38;;;;;;;;;;;15.30;99.90;;;;;;5095694;28;19920;-74
2023/05/09 03:49:04;;;;;;;;;;;15.30;99.90;;;;;;5096846;28;20307;-74
2023/05/09 03:51:29;;;;;;;;;;;15.30;99.90;;;;;;5078649;28;19924;-74
2023/05/09 03:53:55;;;;;;;;;;;15.30;99.90;;;;;;5095716;28;19928;-74
2023/05/09 03:56:21;;;;;;;;;;;15.20;99.90;;;;;;5097471;28;19974;-74
2023/05/09 03:58:46;;;;;;;;;;;15.20;99.90;;;;;;5096336;28;20271;-74
2023/05/09 04:01:12;;;;;;;;;;;15.20;99.90;;;;;;5096546;28;19977;-74
2023/05/09 04:03:38;;;;;;;;;;;15.20;99.90;;;;;;5095681;28;19981;-74
2023/05/09 04:06:04;;;;;;;;;;;15.20;99.90;;;;;;5096177;28;19926;-74
2023/05/09 04:08:30;;;;;;;;;;;15.20;99.90;;;;;;5096463;28;19924;-74
2023/05/09 04:10:56;;;;;;;;;;;15.20;99.90;;;;;;5095158;28;20026;-74
2023/05/09 04:13:21;;;;;;;;;;;15.20;99.90;;;;;;5096198;28;19995;-74
2023/05/09 04:15:47;;;;;;;;;;;15.20;99.90;;;;;;5097290;28;19934;-74
2023/05/09 04:18:12;;;;;;;;;;;15.20;99.90;;;;;;5095949;28;19977;-74
2023/05/09 04:20:38;;;;;;;;;;;15.20;99.90;;;;;;5095778;28;19931;-74
2023/05/09 04:23:03;;;;;;;;;;;15.10;99.90;;;;;;5095422;28;19926;-74
2023/05/09 04:25:30;;;;;;;;;;;15.10;99.90;;;;;;5094842;28;19920;-74
2023/05/09 04:27:56;;;;;;;;;;;15.10;99.90;;;;;;5095250;28;19941;-74
2023/05/09 04:30:22;;;;;;;;;;;15.10;99.90;;;;;;5094848;28;19920;-74
2023/05/09 04:32:48;;;;;;;;;;;15.10;99.90;;;;;;5096807;28;19969;-73
2023/05/09 04:35:13;;;;;;;;;;;15.10;99.90;;;;;;5095906;28;19927;-74
2023/05/09 04:37:39;;;;;;;;;;;15.10;99.90;;;;;;5095059;28;20616;-73
2023/05/09 04:40:06;;;;;;;;;;;15.10;99.90;;;;;;5096237;28;19927;-73
2023/05/09 04:42:32;;;;;;;;;;;15.10;99.90;;;;;;5095071;28;19929;-73
2023/05/09 04:44:58;;;;;;;;;;;15.10;99.90;;;;;;5097576;28;19926;-73
2023/05/09 04:47:24;;;;;;;;;;;15.10;99.90;;;;;;5095554;28;19924;-73
2023/05/09 04:49:49;;;;;;;;;;;15.20;99.90;;;;;;5097121;28;19924;-74
2023/05/09 04:52:15;;;;;;;;;;;15.20;99.90;;;;;;5096736;28;19920;-73
2023/05/09 04:54:40;;;;;;;;;;;15.20;99.90;;;;;;5092131;28;20006;-73
2023/05/09 04:57:06;;;;;;;;;;;15.10;99.90;;;;;;5091498;28;20377;-74
2023/05/09 04:59:31;;;;;;;;;;;15.20;99.90;;;;;;5095721;28;20385;-73
2023/05/09 05:01:57;;;;;;;;;;;15.20;99.90;;;;;;5093249;28;19927;-73
2023/05/09 05:04:22;;;;;;;;;;;15.20;99.90;;;;;;5074016;28;19943;-73
2023/05/09 05:06:48;;;;;;;;;;;15.20;99.90;;;;;;5093088;28;19924;-73
2023/05/09 05:09:13;;;;;;;;;;;15.20;99.90;;;;;;5094340;28;19924;-73
2023/05/09 05:11:39;;;;;;;;;;;15.30;99.90;;;;;;5093881;28;19920;-73
2023/05/09 05:14:04;;;;;;;;;;;15.30;99.90;;;;;;5098207;28;20361;-73
2023/05/09 05:16:30;;;;;;;;;;;15.30;99.90;;;;;;5090666;28;20425;-73
2023/05/09 05:18:55;;;;;;;;;;;15.30;99.90;;;;;;5092280;28;20016;-73
2023/05/09 05:21:21;;;;;;;;;;;15.40;99.90;;;;;;5092076;28;19926;-71
2023/05/09 05:23:47;;;;;;;;;;;15.40;99.90;;;;;;5091482;28;20369;-71
2023/05/09 05:26:12;;;;;;;;;;;15.40;99.90;;;;;;5088503;28;19924;-71
2023/05/09 05:28:38;;;;;;;;;;;15.40;99.90;;;;;;5090009;28;19975;-74
2023/05/09 05:31:03;;;;;;;;;;;15.40;99.90;;;;;;5091295;28;20687;-71
2023/05/09 05:33:29;;;;;;;;;;;15.50;99.90;;;;;;5091248;28;19920;-72
2023/05/09 05:35:54;;;;;;;;;;;15.60;99.90;;;;;;5092574;28;20298;-72
2023/05/09 05:38:20;;;;;;;;;;;15.60;99.90;;;;;;5092212;28;19931;-72
2023/05/09 05:40:45;;;;;;;;;;;15.60;99.90;;;;;;5091486;28;20014;-72
2023/05/09 05:43:11;;;;;;;;;;;15.60;99.90;;;;;;5091006;28;19927;-72
2023/05/09 05:45:36;;;;;;;;;;;15.60;99.90;;;;;;5091145;28;20337;-72
2023/05/09 05:48:02;;;;;;;;;;;15.70;99.90;;;;;;5093479;28;20381;-72
2023/05/09 05:50:27;;;;;;;;;;;15.70;99.90;;;;;;5091678;28;19967;-72
2023/05/09 05:52:53;;;;;;;;;;;15.80;99.90;;;;;;5093013;28;19924;-72
2023/05/09 05:55:18;;;;;;;;;;;15.80;99.90;;;;;;5092488;28;19943;-72
2023/05/09 05:57:44;;;;;;;;;;;15.90;99.90;;;;;;5093070;28;20032;-72
2023/05/09 06:00:10;;;;;;;;;;;15.90;99.90;;;;;;5091650;28;19927;-72
2023/05/09 06:02:36;;;;;;;;;;;15.90;99.90;;;;;;5092246;28;20290;-72
2023/05/09 06:05:02;;;;;;;;;;;15.90;99.90;;;;;;5094152;28;19928;-72
2023/05/09 06:07:28;;;;;;;;;;;15.90;99.90;;;;;;5090758;28;20546;-72
2023/05/09 06:09:53;;;;;;;;;;;15.80;99.90;;;;;;5092240;28;19927;-72
2023/05/09 06:12:19;;;;;;;;;;;15.90;99.90;;;;;;5092231;28;19924;-72
2023/05/09 06:14:44;;;;;;;;;;;15.90;99.90;;;;;;5093452;28;19959;-72
2023/05/09 06:17:10;;;;;;;;;;;15.90;99.90;;;;;;5093398;28;19977;-72
2023/05/09 06:19:36;;;;;;;;;;;16.00;99.90;;;;;;5073336;28;20010;-72
2023/05/09 06:22:02;;;;;;;;;;;16.00;99.90;;;;;;5074158;28;19920;-72
2023/05/09 06:24:27;;;;;;;;;;;16.00;99.90;;;;;;5091349;28;19927;-72
2023/05/09 06:26:53;;;;;;;;;;;16.10;99.90;;;;;;5091676;28;19924;-72
2023/05/09 06:29:18;;;;;;;;;;;16.10;99.90;;;;;;5090445;28;19930;-73
2023/05/09 06:31:44;;;;;;;;;;;16.10;99.90;;;;;;5090968;28;19924;-72
2023/05/09 06:34:09;;;;;;;;;;;16.10;99.90;;;;;;5091147;28;19927;-72
2023/05/09 06:36:38;;;;;;;;;;;16.10;99.90;;;;;;5091207;28;19920;-72
2023/05/09 06:39:03;;;;;;;;;;;16.10;99.90;;;;;;5089339;28;20301;-72
2023/05/09 06:41:29;;;;;;;;;;;16.10;99.90;;;;;;5072643;28;19920;-72
2023/05/09 06:43:55;;;;;;;;;;;16.10;99.90;;;;;;5090885;28;19931;-72
2023/05/09 06:46:20;;;;;;;;;;;16.20;99.90;;;;;;5090429;28;20356;-72
2023/05/09 06:48:46;;;;;;;;;;;16.10;99.90;;;;;;5091296;28;19999;-72
2023/05/09 06:51:11;;;;;;;;;;;16.10;99.90;;;;;;5091875;28;19958;-72
2023/05/09 06:53:37;;;;;;;;;;;16.10;99.90;;;;;;5072539;28;19920;-72
2023/05/09 06:56:03;;;;;;;;;;;16.20;99.90;;;;;;5089885;28;19924;-72
2023/05/09 06:58:28;;;;;;;;;;;16.20;99.90;;;;;;5091160;28;19926;-72
2023/05/09 07:00:54;;;;;;;;;;;16.20;99.90;;;;;;5091244;28;19920;-72
2023/05/09 07:03:20;;;;;;;;;;;16.20;99.90;;;;;;5091080;28;19920;-72
2023/05/09 07:05:46;;;;;;;;;;;16.30;99.90;;;;;;5091152;28;19931;-72
2023/05/09 07:08:11;;;;;;;;;;;16.30;99.90;;;;;;5090654;28;20374;-72
2023/05/09 07:10:37;;;;;;;;;;;16.40;99.90;;;;;;5072499;28;19920;-72
2023/05/09 07:13:03;;;;;;;;;;;16.50;99.90;;;;;;5089374;28;19927;-72
2023/05/09 07:15:28;;;;;;;;;;;16.60;99.90;;;;;;5089134;28;19920;-72
2023/05/09 07:17:54;;;;;;;;;;;16.70;99.90;;;;;;5090304;28;19928;-72
2023/05/09 07:20:20;;;;;;;;;;;16.80;99.90;;;;;;5089794;28;19985;-72
2023/05/09 07:22:45;;;;;;;;;;;16.90;99.90;;;;;;5072059;28;20416;-72
2023/05/09 07:25:11;;;;;;;;;;;16.90;99.90;;;;;;5088049;28;20045;-72
2023/05/09 07:27:36;;;;;;;;;;;16.90;99.90;;;;;;5089744;28;20290;-72
2023/05/09 07:30:03;;;;;;;;;;;16.90;99.90;;;;;;5090815;28;19975;-73
2023/05/09 07:32:28;;;;;;;;;;;16.80;99.90;;;;;;5090375;28;20010;-72
2023/05/09 07:34:54;;;;;;;;;;;16.80;99.90;;;;;;5090849;28;20053;-72
2023/05/09 07:37:20;;;;;;;;;;;16.80;99.90;;;;;;5091988;28;19960;-72
2023/05/09 07:39:46;;;;;;;;;;;16.80;99.90;;;;;;5091163;28;19928;-72
2023/05/09 07:42:12;;;;;;;;;;;16.80;99.90;;;;;;5090842;28;19920;-72
2023/05/09 07:44:37;;;;;;;;;;;16.80;99.90;;;;;;5074268;28;19947;-72
2023/05/09 07:47:04;;;;;;;;;;;16.80;99.90;;;;;;5092114;28;20279;-72
2023/05/09 07:49:32;;;;;;;;;;;16.80;99.90;;;;;;5091741;28;19920;-72
2023/05/09 07:51:58;;;;;;;;;;;16.80;99.90;;;;;;5092787;28;19923;-72
2023/05/09 07:54:23;;;;;;;;;;;16.90;99.90;;;;;;5092129;28;19927;-72
2023/05/09 07:56:49;;;;;;;;;;;16.90;99.90;;;;;;5093274;28;19927;-72
2023/05/09 07:59:14;;;;;;;;;;;16.90;99.90;;;;;;5089266;28;19924;-72
2023/05/09 08:01:40;;;;;;;;;;;16.90;99.90;;;;;;5089893;28;20603;-72
2023/05/09 08:04:07;;;;;;;;;;;17.00;99.90;;;;;;5091741;28;19920;-72
2023/05/09 08:06:33;;;;;;;;;;;17.00;99.90;;;;;;5091180;28;20370;-72
2023/05/09 08:08:59;;;;;;;;;;;17.10;99.90;;;;;;5089174;28;19960;-73
2023/05/09 08:11:25;;;;;;;;;;;17.10;99.90;;;;;;5090748;28;19920;-72
2023/05/09 08:13:50;;;;;;;;;;;17.20;99.90;;;;;;5090993;28;20010;-72
2023/05/09 08:16:16;;;;;;;;;;;17.10;99.90;;;;;;5093284;28;19920;-72
2023/05/09 08:18:42;;;;;;;;;;;17.10;99.90;;;;;;5070674;28;20019;-72
2023/05/09 08:21:07;;;;;;;;;;;17.00;99.90;;;;;;5088869;28;20345;-72
2023/05/09 08:23:33;;;;;;;;;;;17.10;99.90;;;;;;5089907;28;20046;-72
2023/05/09 08:25:58;;;;;;;;;;;17.10;99.90;;;;;;5089974;28;20474;-72
2023/05/09 08:28:27;;;;;;;;;;;17.00;99.90;;;;;;5090010;28;19924;-72
2023/05/09 08:30:53;;;;;;;;;;;16.90;99.90;;;;;;5093085;28;19926;-72
2023/05/09 08:33:18;;;;;;;;;;;16.90;99.90;;;;;;5093630;28;20332;-72
2023/05/09 08:35:44;;;;;;;;;;;16.90;99.90;;;;;;5093263;28;20274;-72
2023/05/09 08:38:10;;;;;;;;;;;16.90;99.90;;;;;;5093386;28;19920;-72
2023/05/09 08:40:36;;;;;;;;;;;16.80;99.90;;;;;;5092911;28;19920;-72
2023/05/09 08:43:02;;;;;;;;;;;16.80;99.90;;;;;;5092540;28;19927;-72
2023/05/09 08:45:29;;;;;;;;;;;16.80;99.90;;;;;;5078268;28;19920;-72
2023/05/09 08:47:55;;;;;;;;;;;16.80;99.90;;;;;;5092431;28;19920;-72
2023/05/09 08:50:21;;;;;;;;;;;16.80;99.90;;;;;;5094097;28;19920;-73
2023/05/09 08:52:46;;;;;;;;;;;16.80;99.90;;;;;;5077618;28;19930;-72
2023/05/09 08:55:13;;;;;;;;;;;16.90;99.90;;;;;;5078029;28;19924;-72
2023/05/09 08:57:38;;;;;;;;;;;16.90;99.90;;;;;;5095241;28;19980;-72
2023/05/09 09:00:05;;;;;;;;;;;16.90;99.90;;;;;;5094949;28;19924;-72
2023/05/09 09:02:34;;;;;;;;;;;16.90;99.90;;;;;;5095181;28;19927;-72
2023/05/09 09:05:01;;;;;;;;;;;16.90;99.90;;;;;;5095109;28;20388;-73
2023/05/09 09:07:27;;;;;;;;;;;16.90;99.90;;;;;;5092670;28;19952;-72
2023/05/09 09:09:53;;;;;;;;;;;16.80;99.90;;;;;;5076399;28;19978;-72
2023/05/09 09:12:21;;;;;;;;;;;16.90;99.90;;;;;;5094207;28;19973;-73
2023/05/09 09:14:49;;;;;;;;;;;16.90;99.90;;;;;;5096036;28;20411;-72
2023/05/09 09:17:16;;;;;;;;;;;17.00;99.90;;;;;;5096256;28;19970;-73
2023/05/09 09:19:43;;;;;;;;;;;17.00;99.90;;;;;;5092428;28;20394;-72
2023/05/09 09:22:09;;;;;;;;;;;17.00;99.90;;;;;;5090791;28;20390;-73
2023/05/09 09:24:35;;;;;;;;;;;17.10;99.90;;;;;;5091377;28;19959;-73
2023/05/09 09:27:04;;;;;;;;;;;17.30;99.90;;;;;;5091741;28;19986;-73
2023/05/09 09:29:30;;;;;;;;;;;17.50;99.90;;;;;;5092109;28;19931;-73
2023/05/09 09:31:56;;;;;;;;;;;17.60;99.90;;;;;;5090385;28;19920;-73
2023/05/09 09:34:23;;;;;;;;;;;17.80;99.90;;;;;;5091802;28;20350;-73
2023/05/09 09:36:49;;;;;;;;;;;18.00;99.90;;;;;;5093059;28;19977;-72
2023/05/09 09:39:14;;;;;;;;;;;18.10;99.90;;;;;;5092813;28;19925;-72
2023/05/09 09:41:40;;;;;;;;;;;18.30;99.90;;;;;;5074746;28;19924;-73
2023/05/09 09:44:10;;;;;;;;;;;18.40;99.90;;;;;;5092022;28;19924;-73
2023/05/09 09:46:42;;;;;;;;;;;18.40;99.90;;;;;;5075518;28;19927;-72
2023/05/09 09:49:18;;;;;;;;;;;18.50;99.90;;;;;;5092160;28;19993;-72
2023/05/09 09:51:43;;;;;;;;;;;18.40;99.90;;;;;;5094458;28;20377;-73
2023/05/09 09:54:10;;;;;;;;;;;18.40;99.90;;;;;;5093011;28;19968;-73
2023/05/09 09:56:42;;;;;;;;;;;18.30;99.90;;;;;;5093461;28;19930;-73
2023/05/09 09:59:18;;;;;;;;;;;18.30;99.90;;;;;;5091251;28;19967;-72
2023/05/09 10:02:03;;;;;;;;;;;18.30;99.90;;;;;;5092482;28;20298;-73
2023/05/09 10:04:30;;;;;;;;;;;18.30;99.90;;;;;;5092262;28;19924;-73
2023/05/09 10:06:59;;;;;;;;;;;18.20;99.90;;;;;;5091083;28;19960;-73
2023/05/09 10:09:26;;;;;;;;;;;18.20;99.90;;;;;;5075149;28;20374;-72
2023/05/09 10:11:52;;;;;;;;;;;18.20;99.90;;;;;;5092047;28;20416;-73
2023/05/09 10:14:19;;;;;;;;;;;18.20;99.90;;;;;;5092852;28;19969;-73
2023/05/09 10:16:46;;;;;;;;;;;18.30;99.90;;;;;;5089964;28;19935;-72
2023/05/09 10:19:12;;;;;;;;;;;18.30;99.90;;;;;;5092162;28;20296;-73
2023/05/09 10:21:38;;;;;;;;;;;18.30;99.90;;;;;;5089801;28;19924;-73
2023/05/09 10:24:04;;;;;;;;;;;18.40;99.90;;;;;;5090269;28;19924;-73
2023/05/09 10:26:31;;;;;;;;;;;18.40;99.90;;;;;;5091149;28;20377;-72
2023/05/09 10:28:58;;;;;;;;;;;18.50;99.90;;;;;;5091316;28;19924;-72
2023/05/09 10:31:27;;;;;;;;;;;18.50;99.90;;;;;;5090066;28;19924;-73
2023/05/09 10:33:54;;;;;;;;;;;18.60;99.90;;;;;;5092098;28;19975;-73
2023/05/09 10:36:21;;;;;;;;;;;18.70;99.90;;;;;;5090158;28;19970;-73
2023/05/09 10:38:47;;;;;;;;;;;18.80;99.90;;;;;;5091755;28;19935;-73
2023/05/09 10:41:14;;;;;;;;;;;19.00;99.90;;;;;;5089286;28;19991;-73
2023/05/09 10:43:41;;;;;;;;;;;19.10;99.90;;;;;;5090130;28;19977;-72
2023/05/09 10:46:07;;;;;;;;;;;19.10;99.90;;;;;;5091847;28;19924;-72
2023/05/09 10:48:32;;;;;;;;;;;19.10;99.90;;;;;;5090346;28;20007;-72
2023/05/09 10:51:01;;;;;;;;;;;19.10;99.90;;;;;;5089660;28;19924;-72
2023/05/09 10:53:59;;;;;;;;;;;19.20;99.90;;;;;;5087647;28;19924;-73
2023/05/09 10:56:28;;;;;;;;;;;19.10;99.90;;;;;;5042269;28;21234;-73
2023/05/09 10:58:53;;;;;;;;;;;18.90;99.90;;;;;;5090619;28;19930;-72
2023/05/09 11:01:33;;;;;;;;;;;18.80;99.90;;;;;;5090975;28;20347;-73
2023/05/09 11:03:59;;;;;;;;;;;18.70;99.90;;;;;;5090186;28;19928;-73
2023/05/09 11:06:49;;;;;;;;;;;18.60;99.90;;;;;;5090008;28;20405;-72
2023/05/09 11:09:28;;;;;;;;;;;18.40;99.90;;;;;;5091087;28;20330;-72
2023/05/09 11:11:55;;;;;;;;;;;18.30;99.90;;;;;;5091548;28;19931;-72
2023/05/09 11:14:27;;;;;;;;;;;18.30;99.90;;;;;;5074078;28;19924;-73
2023/05/09 11:16:57;;;;;;;;;;;18.30;99.90;;;;;;5089287;28;20401;-73
2023/05/09 11:19:37;;;;;;;;;;;18.30;99.90;;;;;;5089699;28;19935;-73
2023/05/09 11:22:13;;;;;;;;;;;18.30;99.90;;;;;;5073760;28;19947;-72
2023/05/09 11:24:39;;;;;;;;;;;18.40;99.90;;;;;;5090765;28;20440;-72
2023/05/09 11:27:24;;;;;;;;;;;18.40;99.90;;;;;;5089828;28;19940;-72
2023/05/09 11:29:51;;;;;;;;;;;18.50;99.90;;;;;;5089125;28;20047;-72
2023/05/09 11:32:17;;;;;;;;;;;18.60;99.90;;;;;;5089862;28;19986;-73
2023/05/09 11:34:44;;;;;;;;;;;18.70;99.90;;;;;;5089669;28;20003;-72
2023/05/09 11:37:10;;;;;;;;;;;18.70;99.90;;;;;;5091715;28;20351;-72
2023/05/09 11:39:53;;;;;;;;;;;18.60;99.90;;;;;;5090314;28;20003;-72
2023/05/09 11:42:19;;;;;;;;;;;18.60;99.90;;;;;;5089321;28;20023;-73
2023/05/09 11:44:47;;;;;;;;;;;18.50;99.90;;;;;;5090548;28;19931;-72
2023/05/09 11:47:13;;;;;;;;;;;18.40;99.90;;;;;;5088617;28;19986;-72
2023/05/09 11:49:41;;;;;;;;;;;18.30;99.90;;;;;;5088604;28;19924;-75
2023/05/09 11:52:07;;;;;;;;;;;18.20;99.90;;;;;;5078315;28;19924;-72
2023/05/09 11:54:35;;;;;;;;;;;18.20;99.90;;;;;;5088382;28;20423;-72
2023/05/09 11:57:00;;;;;;;;;;;18.10;99.90;;;;;;5089524;28;20362;-72
2023/05/09 11:59:27;;;;;;;;;;;18.10;99.90;;;;;;5088281;28;19924;-73
2023/05/09 12:01:53;;;;;;;;;;;18.10;99.90;;;;;;5089783;28;19924;-73
2023/05/09 12:04:18;;;;;;;;;;;18.20;99.90;;;;;;5091819;28;19954;-73
2023/05/09 12:06:50;;;;;;;;;;;18.10;99.90;;;;;;5092706;28;20398;-73
2023/05/09 12:09:16;;;;;;;;;;;18.10;99.90;;;;;;5092793;28;19923;-73
2023/05/09 12:11:48;;;;;;;;;;;18.20;99.90;;;;;;5093816;28;20412;-73
2023/05/09 12:14:33;;;;;;;;;;;18.20;99.90;;;;;;5093052;28;20499;-73
2023/05/09 12:17:00;;;;;;;;;;;18.30;99.90;;;;;;5091982;28;19924;-73
2023/05/09 12:19:25;;;;;;;;;;;18.40;99.90;;;;;;5093079;28;20290;-73
2023/05/09 12:21:58;;;;;;;;;;;18.50;99.90;;;;;;5093644;28;19935;-73
2023/05/09 12:24:25;;;;;;;;;;;18.60;99.90;;;;;;5081318;28;19932;-73
2023/05/09 12:26:51;;;;;;;;;;;18.70;99.90;;;;;;5093224;28;20077;-73
2023/05/09 12:29:17;;;;;;;;;;;18.80;99.90;;;;;;5092412;28;19924;-73
2023/05/09 12:31:43;;;;;;;;;;;18.90;99.90;;;;;;5092085;28;19924;-73
2023/05/09 12:34:09;;;;;;;;;;;19.10;99.90;;;;;;5093350;28;20291;-73
2023/05/09 12:36:35;;;;;;;;;;;19.20;99.90;;;;;;5092692;28;19928;-73
2023/05/09 12:39:02;;;;;;;;;;;19.40;99.90;;;;;;5092141;28;19993;-73
2023/05/09 12:41:28;;;;;;;;;;;19.50;99.90;;;;;;5091544;28;20084;-73
2023/05/09 12:43:54;;;;;;;;;;;19.50;99.90;;;;;;5090820;28;19924;-73
2023/05/09 12:46:20;;;;;;;;;;;19.50;99.90;;;;;;5091267;28;19924;-73
2023/05/09 12:48:47;;;;;;;;;;;19.50;99.90;;;;;;5091890;28;19935;-73
2023/05/09 12:51:16;;;;;;;;;;;19.50;99.90;;;;;;5091786;28;19924;-73
2023/05/09 12:53:42;;;;;;;;;;;19.50;99.90;;;;;;5091181;28;20019;-73
2023/05/09 12:56:14;;;;;;;;;;;19.50;99.90;;;;;;5091810;28;20281;-73
2023/05/09 12:58:46;;;;;;;;;;;19.40;99.90;;;;;;5075101;28;19980;-73
2023/05/09 13:01:12;;;;;;;;;;;19.30;99.90;;;;;;5091905;28;20401;-73
2023/05/09 13:03:38;;;;;;;;;;;19.30;99.90;;;;;;5091053;28;19927;-73
2023/05/09 13:06:05;;;;;;;;;;;19.20;99.90;;;;;;5092595;28;19977;-73
2023/05/09 13:08:30;;;;;;;;;;;19.10;99.90;;;;;;5091528;28;19924;-73
2023/05/09 13:10:57;;;;;;;;;;;19.00;99.90;;;;;;5092313;28;20462;-73
2023/05/09 13:13:26;;;;;;;;;;;18.90;99.90;;;;;;5091131;28;19946;-73
2023/05/09 13:15:52;;;;;;;;;;;18.80;99.90;;;;;;5090772;28;19960;-73
2023/05/09 13:18:17;;;;;;;;;;;18.80;99.90;;;;;;5074656;28;20378;-73
2023/05/09 13:20:43;;;;;;;;;;;18.70;99.90;;;;;;5073930;28;19978;-73
2023/05/09 13:23:08;;;;;;;;;;;18.60;99.90;;;;;;5092059;28;19931;-73
2023/05/09 13:25:34;;;;;;;;;;;18.60;99.90;;;;;;5073781;28;20459;-73
2023/05/09 13:28:00;;;;;;;;;;;18.50;99.90;;;;;;5073682;28;19924;-73
2023/05/09 13:30:25;;;;;;;;;;;18.50;99.90;;;;;;5089472;28;20011;-73
2023/05/09 13:32:51;;;;;;;;;;;18.50;99.90;;;;;;5090848;28;20378;-73
2023/05/09 13:35:16;;;;;;;;;;;18.40;99.90;;;;;;5091594;28;19931;-73
2023/05/09 13:37:42;;;;;;;;;;;18.40;99.90;;;;;;5073526;28;20357;-73
2023/05/09 13:40:08;;;;;;;;;;;18.50;99.90;;;;;;5092308;28;19928;-73
2023/05/09 13:42:34;;;;;;;;;;;18.50;99.90;;;;;;5090664;28;19924;-73
2023/05/09 13:44:59;;;;;;;;;;;18.50;99.90;;;;;;5075024;28;19983;-73
2023/05/09 13:47:25;;;;;;;;;;;18.50;99.90;;;;;;5092741;28;20382;-73
2023/05/09 13:49:51;;;;;;;;;;;18.50;99.90;;;;;;5090534;28;19924;-73
2023/05/09 13:52:17;;;;;;;;;;;18.50;99.90;;;;;;5091067;28;19924;-73
2023/05/09 13:54:42;;;;;;;;;;;18.50;99.90;;;;;;5091877;28;20402;-73
2023/05/09 13:57:08;;;;;;;;;;;18.50;99.90;;;;;;5090294;28;20015;-73
2023/05/09 13:59:34;;;;;;;;;;;18.60;99.90;;;;;;5089449;28;20309;-73
2023/05/09 14:02:00;;;;;;;;;;;18.60;99.90;;;;;;5073019;28;19924;-73
2023/05/09 14:04:26;;;;;;;;;;;18.60;99.90;;;;;;5073802;28;19924;-73
2023/05/09 14:06:52;;;;;;;;;;;18.70;99.90;;;;;;5091106;28;19924;-73
2023/05/09 14:09:18;;;;;;;;;;;18.70;99.90;;;;;;5088540;28;19967;-73
2023/05/09 14:11:43;;;;;;;;;;;18.80;99.90;;;;;;5090831;28;20020;-73
2023/05/09 14:14:10;;;;;;;;;;;18.70;99.90;;;;;;5093706;28;20019;-73